Weather History for KETB - February, 2014

Change the Weather History Date:

Tuesday, February 25, 2014

  Actual Average Record
Temperature  
Mean Temperature 8 °F -  
Max Temperature 14 °F 32 °F 57 °F (1932)
Min Temperature 1 °F 15 °F -12 °F (1967)
Degree Days  
Heating Degree Days 56    
Moisture  
Dew Point -3 °F    
Average Humidity 57    
Maximum Humidity 73    
Minimum Humidity 41    
Precipitation  
Precipitation 0.00 in - - ()
Sea Level Pressure  
Sea Level Pressure 30.14 in    
Wind  
Wind Speed 11 mph (West)    
Max Wind Speed 18 mph    
Max Gust Speed 25 mph    
Visibility 10 miles    
Events      
Averages and records for this station are not official NWS values.
T = Trace of Precipitation, MM = Missing Value Source: NWS Daily Summary

Daily Weather History Graph

Daily Weather History Graph

Search for Another Location

Airport or City:

Trip Planner

Search our weather history database for the weather conditions in past years. The results will help you decide how hot, cold, wet, or windy it might be!

Date:

Astronomy

Feb. 25, 2014 Rise Set
Actual Time 6:35 AM CST 5:36 PM CST
Civil Twilight 6:06 AM CST 6:05 PM CST
Nautical Twilight 5:33 AM CST 6:38 PM CST
Astronomical Twilight 5:00 AM CST 7:11 PM CST
Moon 3:35 AM CST (2/25) 1:37 PM CST (2/25)
Length of Visible Light 11h 58m
Length of Day
11h 00m
Waning Crescent, 18% of the Moon is Illuminated
Feb 25
Waning Crescent
Mar 1
New
Mar 8
First Quarter
Mar 16
Full
Mar 23
Last Quarter

Hourly Weather History & Observations

Time (CST) Temp. Windchill Dew Point Humidity Pressure Visibility Wind Dir Wind Speed Gust Speed Precip Events Conditions
12:15 AM 12.2 °F -1.8 °F 1.4 °F 62% 30.18 in 10.0 mi WNW 11.5 mph 16.1 mph N/A   Overcast
12:35 AM 12.2 °F 0.7 °F 1.4 °F 62% 30.19 in 10.0 mi WNW 8.1 mph 16.1 mph N/A   Overcast
12:55 AM 12.2 °F 1.7 °F 1.4 °F 62% 30.18 in 10.0 mi WNW 6.9 mph - N/A   Overcast
1:15 AM 12.2 °F 0.7 °F 1.4 °F 62% 30.18 in 10.0 mi West 8.1 mph - N/A   Overcast
1:55 AM 12.2 °F 2.9 °F 1.4 °F 62% 30.18 in 10.0 mi West 5.8 mph - N/A   Overcast
1:57 AM 10.4 °F -1.5 °F -0.4 °F 62% 30.18 in 10.0 mi West 8.1 mph - N/A   Overcast
2:10 AM 10.4 °F -0.4 °F 1.4 °F 67% 30.18 in 10.0 mi WNW 6.9 mph - N/A   Overcast
2:11 AM 10.4 °F 0.8 °F -0.4 °F 62% 30.18 in 10.0 mi WNW 5.8 mph - N/A   Overcast
2:57 AM 10.4 °F -1.5 °F -0.4 °F 62% 30.17 in 10.0 mi West 8.1 mph - N/A   Overcast
3:16 AM 10.4 °F -1.5 °F -0.4 °F 62% 30.16 in 10.0 mi West 8.1 mph - N/A   Overcast
3:37 AM 8.6 °F -2.6 °F -0.4 °F 67% 30.17 in 10.0 mi West 6.9 mph - N/A   Overcast
3:55 AM 10.4 °F -2.4 °F 1.4 °F 67% 30.17 in 10.0 mi West 9.2 mph - N/A   Overcast
3:56 AM 8.6 °F -4.7 °F -0.4 °F 67% 30.17 in 10.0 mi West 9.2 mph - N/A   Overcast
4:15 AM 10.4 °F -2.4 °F 1.4 °F 67% 30.17 in 10.0 mi West 9.2 mph - N/A   Mostly Cloudy
4:35 AM 10.4 °F -2.4 °F -0.4 °F 62% 30.17 in 10.0 mi West 9.2 mph - N/A   Clear
4:55 AM 10.4 °F 0.8 °F -0.4 °F 62% 30.16 in 10.0 mi West 5.8 mph - N/A   Clear
5:15 AM 8.6 °F -3.7 °F -0.4 °F 67% 30.16 in 10.0 mi West 8.1 mph - N/A   Clear
5:35 AM 8.6 °F -4.7 °F -0.4 °F 67% 30.16 in 10.0 mi West 9.2 mph - N/A   Clear
5:55 AM 8.6 °F -2.6 °F -0.4 °F 67% 30.16 in 10.0 mi West 6.9 mph - N/A   Clear
6:15 AM 8.6 °F -3.7 °F -0.4 °F 67% 30.16 in 10.0 mi West 8.1 mph - N/A   Clear
6:35 AM 8.6 °F -4.7 °F -0.4 °F 67% 30.16 in 10.0 mi West 9.2 mph - N/A   Clear
6:55 AM 8.6 °F -5.5 °F -0.4 °F 67% 30.16 in 10.0 mi West 10.4 mph 17.3 mph N/A   Clear
7:15 AM 8.6 °F -6.3 °F -0.4 °F 67% 30.16 in 10.0 mi West 11.5 mph 17.3 mph N/A   Clear
7:35 AM 10.4 °F -4.1 °F -0.4 °F 62% 30.16 in 10.0 mi West 11.5 mph 17.3 mph N/A   Clear
7:55 AM 10.4 °F -4.8 °F 1.4 °F 67% 30.17 in 10.0 mi WNW 12.7 mph 20.7 mph N/A   Scattered Clouds
8:15 AM 10.4 °F -5.4 °F 1.4 °F 67% 30.16 in 10.0 mi West 13.8 mph 17.3 mph N/A   Scattered Clouds
8:35 AM 10.4 °F -4.1 °F 1.4 °F 67% 30.16 in 10.0 mi WNW 11.5 mph 18.4 mph N/A   Clear
8:55 AM 10.4 °F -5.4 °F 1.4 °F 67% 30.16 in 10.0 mi West 13.8 mph 19.6 mph N/A   Scattered Clouds
9:15 AM 10.4 °F -6.0 °F 3.2 °F 73% 30.16 in 10.0 mi West 15.0 mph 20.7 mph N/A   Scattered Clouds
9:35 AM 10.4 °F -6.0 °F 1.4 °F 67% 30.17 in 10.0 mi WNW 15.0 mph - N/A   Mostly Cloudy
9:55 AM 10.4 °F -4.8 °F 1.4 °F 67% 30.16 in 7.0 mi West 12.7 mph - N/A   Mostly Cloudy
10:15 AM 12.2 °F -2.5 °F 1.4 °F 62% 30.16 in 10.0 mi West 12.7 mph 17.3 mph N/A   Scattered Clouds
10:35 AM 12.2 °F -2.5 °F -0.4 °F 57% 30.15 in 10.0 mi West 12.7 mph - N/A   Scattered Clouds
11:15 AM 12.2 °F -3.7 °F -2.2 °F 53% 30.14 in 10.0 mi West 15.0 mph 21.9 mph N/A   Clear
11:16 AM 12.2 °F -3.7 °F -2.2 °F 53% 30.14 in 10.0 mi West 15.0 mph 21.9 mph N/A   Clear
11:35 AM 12.2 °F -3.7 °F -2.2 °F 53% 30.14 in 10.0 mi West 15.0 mph 21.9 mph N/A   Clear
11:55 AM 14.0 °F 1.2 °F -4.0 °F 45% 30.13 in 10.0 mi West 10.4 mph 16.1 mph N/A   Clear
12:15 PM 14.0 °F -0.8 °F -0.4 °F 53% 30.12 in 10.0 mi WNW 13.8 mph 20.7 mph N/A   Clear
12:35 PM 14.0 °F -1.4 °F -2.2 °F 49% 30.11 in 10.0 mi West 15.0 mph 21.9 mph N/A   Clear
12:55 PM 14.0 °F -3.0 °F -2.2 °F 49% 30.11 in 10.0 mi West 18.4 mph 23.0 mph N/A   Scattered Clouds
1:15 PM 14.0 °F -2.5 °F -0.4 °F 53% 30.11 in 10.0 mi WSW 17.3 mph 20.7 mph N/A   Clear
1:35 PM 14.0 °F -3.0 °F -4.0 °F 45% 30.11 in 10.0 mi West 18.4 mph 25.3 mph N/A   Clear
1:55 PM 14.0 °F -0.8 °F -4.0 °F 45% 30.10 in 10.0 mi West 13.8 mph 24.2 mph N/A   Clear
2:15 PM 14.0 °F -2.0 °F -4.0 °F 45% 30.09 in 10.0 mi West 16.1 mph 21.9 mph N/A   Clear
2:35 PM 14.0 °F -0.2 °F -5.8 °F 41% 30.09 in 10.0 mi West 12.7 mph 21.9 mph N/A   Clear
2:55 PM 14.0 °F -2.0 °F -4.0 °F 45% 30.08 in 10.0 mi WSW 16.1 mph - N/A   Clear
3:15 PM 14.0 °F -1.4 °F -5.8 °F 41% 30.08 in 10.0 mi West 15.0 mph 24.2 mph N/A   Clear
3:35 PM 14.0 °F -1.4 °F -5.8 °F 41% 30.08 in 10.0 mi West 15.0 mph 21.9 mph N/A   Clear
3:55 PM 12.2 °F -4.3 °F -5.8 °F 45% 30.08 in 10.0 mi West 16.1 mph 20.7 mph N/A   Clear
4:15 PM 12.2 °F -4.8 °F -5.8 °F 45% 30.08 in 10.0 mi West 17.3 mph 21.9 mph N/A   Clear
4:35 PM 12.2 °F -4.8 °F -5.8 °F 45% 30.07 in 10.0 mi West 17.3 mph 23.0 mph N/A   Clear
4:55 PM 12.2 °F -1.8 °F -5.8 °F 45% 30.07 in 10.0 mi West 11.5 mph 21.9 mph N/A   Clear
5:15 PM 12.2 °F -1.8 °F -5.8 °F 45% 30.07 in 10.0 mi West 11.5 mph 17.3 mph N/A   Clear
5:35 PM 10.4 °F -2.4 °F -7.6 °F 44% 30.08 in 10.0 mi West 9.2 mph - N/A   Clear
5:55 PM 10.4 °F -3.3 °F -5.8 °F 48% 30.08 in 10.0 mi West 10.4 mph - N/A   Clear
6:15 PM 10.4 °F -2.4 °F -5.8 °F 48% 30.09 in 10.0 mi West 9.2 mph 17.3 mph N/A   Clear
6:35 PM 10.4 °F -4.1 °F -5.8 °F 48% 30.09 in 10.0 mi West 11.5 mph - N/A   Clear
6:55 PM 8.6 °F -7.0 °F -5.8 °F 52% 30.10 in 10.0 mi West 12.7 mph 18.4 mph N/A   Clear
7:15 PM 8.6 °F -6.3 °F -7.6 °F 48% 30.10 in 10.0 mi West 11.5 mph - N/A   Clear
7:35 PM 8.6 °F -7.0 °F -7.6 °F 48% 30.11 in 10.0 mi West 12.7 mph - N/A   Clear
7:55 PM 8.6 °F -6.3 °F -7.6 °F 48% 30.11 in 10.0 mi WNW 11.5 mph 19.6 mph N/A   Clear
8:15 PM 6.8 °F -6.9 °F -9.4 °F 48% 30.12 in 10.0 mi WNW 9.2 mph 19.6 mph N/A   Clear
8:35 PM 6.8 °F -9.3 °F -7.6 °F 52% 30.12 in 10.0 mi WNW 12.7 mph 20.7 mph N/A   Clear
8:55 PM 5.0 °F -10.0 °F -7.6 °F 56% 30.14 in 10.0 mi WNW 10.4 mph 19.6 mph N/A   Clear
9:15 PM 5.0 °F -10.8 °F -7.6 °F 56% 30.14 in 10.0 mi WNW 11.5 mph - N/A   Clear
9:35 PM 5.0 °F -10.8 °F -7.6 °F 56% 30.15 in 10.0 mi WNW 11.5 mph 18.4 mph N/A   Clear
9:55 PM 5.0 °F -9.1 °F -7.6 °F 56% 30.15 in 10.0 mi WNW 9.2 mph 18.4 mph N/A   Clear
10:15 PM 3.2 °F -13.1 °F -7.6 °F 61% 30.15 in 10.0 mi WNW 11.5 mph 18.4 mph N/A   Clear
10:35 PM 3.2 °F -14.6 °F -7.6 °F 61% 30.16 in 10.0 mi WNW 13.8 mph - N/A   Clear
10:55 PM 3.2 °F -14.6 °F -9.4 °F 56% 30.16 in 10.0 mi WNW 13.8 mph 20.7 mph N/A   Clear
11:15 PM 3.2 °F -13.1 °F -9.4 °F 56% 30.15 in 10.0 mi WNW 11.5 mph 21.9 mph N/A   Clear
11:35 PM 3.2 °F -12.2 °F -9.4 °F 56% 30.16 in 10.0 mi WNW 10.4 mph 17.3 mph N/A   Clear
11:55 PM 1.4 °F -12.5 °F -9.4 °F 61% 30.16 in 10.0 mi WNW 8.1 mph - N/A   Clear